createdAt,value
2023-02-11T00:01:27.228Z,0.63
2023-02-11T00:03:55.848Z,0.70
2023-02-11T00:06:24.689Z,0.68
2023-02-11T00:08:53.644Z,0.77
2023-02-11T00:11:25.544Z,0.75
2023-02-11T00:13:55.324Z,0.50
2023-02-11T00:16:23.903Z,0.63
2023-02-11T00:18:53.201Z,0.80
2023-02-11T00:21:23.869Z,0.63
2023-02-11T00:23:52.541Z,1.10
2023-02-11T00:28:54.200Z,0.77
2023-02-11T00:31:25.398Z,0.90
2023-02-11T00:33:54.029Z,0.25
2023-02-11T00:38:54.065Z,0.82
2023-02-11T00:41:23.249Z,1.23
2023-02-11T00:43:54.162Z,0.50
2023-02-11T00:46:24.484Z,0.45
2023-02-11T00:48:55.246Z,0.77
2023-02-11T00:51:23.201Z,0.25
2023-02-11T00:53:51.908Z,0.68
2023-02-11T00:56:20.306Z,0.47
2023-02-11T01:01:18.826Z,0.55
2023-02-11T01:03:48.482Z,0.50
2023-02-11T01:06:16.929Z,0.63
2023-02-11T01:08:46.173Z,0.75
2023-02-11T01:11:16.340Z,0.77
2023-02-11T01:13:48.158Z,0.77
2023-02-11T01:16:17.256Z,0.70
2023-02-11T01:18:48.846Z,0.77
2023-02-11T01:21:19.450Z,0.63
2023-02-11T01:23:47.452Z,0.30
2023-02-11T01:26:15.445Z,0.30
2023-02-11T01:28:43.709Z,0.38
2023-02-11T01:33:41.442Z,0.80
2023-02-11T01:36:13.794Z,0.60
2023-02-11T01:38:41.992Z,0.70
2023-02-11T01:41:13.218Z,0.45
2023-02-11T01:43:43.963Z,0.85
2023-02-11T01:46:32.392Z,0.17
2023-02-11T01:49:05.670Z,0.60
2023-02-11T01:51:39.853Z,0.57
2023-02-11T01:54:27.848Z,0.77
2023-02-11T01:57:18.192Z,0.70
2023-02-11T01:59:53.585Z,0.10
2023-02-11T02:02:34.910Z,0.80
2023-02-11T02:05:10.978Z,0.70
2023-02-11T02:07:47.157Z,0.75
2023-02-11T02:10:20.315Z,0.50
2023-02-11T02:12:48.938Z,0.55
2023-02-11T02:15:26.116Z,0.40
2023-02-11T02:18:20.079Z,0.63
2023-02-11T02:21:16.490Z,0.50
2023-02-11T02:24:04.669Z,1.00
2023-02-11T02:26:49.536Z,0.70
2023-02-11T02:29:40.497Z,0.77
2023-02-11T02:32:32.294Z,0.52
2023-02-11T02:35:11.974Z,0.38
2023-02-11T02:37:48.230Z,0.80
2023-02-11T02:40:21.395Z,0.65
2023-02-11T02:42:52.127Z,0.45
2023-02-11T02:45:21.103Z,0.85
2023-02-11T02:47:50.813Z,0.60
2023-02-11T02:50:26.497Z,0.70
2023-02-11T02:53:03.958Z,1.23
2023-02-11T02:55:43.942Z,0.93
2023-02-11T02:58:59.396Z,0.68
2023-02-11T03:01:36.054Z,0.57
2023-02-11T03:04:15.625Z,0.70
2023-02-11T03:06:50.097Z,1.10
2023-02-11T03:09:27.242Z,0.98
2023-02-11T03:11:55.931Z,0.88
2023-02-11T03:16:58.927Z,1.05
2023-02-11T03:19:34.424Z,0.70
2023-02-11T03:22:06.548Z,0.50
2023-02-11T03:24:39.610Z,0.98
2023-02-11T03:27:14.172Z,0.93
2023-02-11T03:29:49.301Z,0.80
2023-02-11T03:32:24.258Z,0.43
2023-02-11T03:34:58.854Z,0.90
2023-02-11T03:37:32.047Z,0.57
2023-02-11T03:40:04.807Z,1.17
2023-02-11T03:42:39.819Z,0.20
2023-02-11T03:45:11.953Z,0.88
2023-02-11T03:47:42.907Z,0.77
2023-02-11T03:50:15.849Z,0.70
2023-02-11T03:52:45.067Z,0.65
2023-02-11T03:55:18.890Z,0.77
2023-02-11T03:57:48.175Z,0.70
2023-02-11T04:00:16.884Z,1.42
2023-02-11T04:02:45.682Z,0.90
2023-02-11T04:05:17.261Z,1.15
2023-02-11T04:07:45.788Z,0.77
2023-02-11T04:10:14.393Z,0.65
2023-02-11T04:12:43.064Z,0.95
2023-02-11T04:15:11.460Z,1.08
2023-02-11T04:17:40.883Z,1.35
2023-02-11T04:20:09.870Z,1.17
2023-02-11T04:22:39.771Z,1.45
2023-02-11T04:25:09.415Z,1.38
2023-02-11T04:27:38.813Z,1.30
2023-02-11T04:30:09.791Z,0.55
2023-02-11T04:32:38.635Z,1.08
2023-02-11T04:37:36.166Z,0.88
2023-02-11T04:40:06.287Z,1.27
2023-02-11T04:42:34.389Z,0.98
2023-02-11T04:45:02.344Z,1.80
2023-02-11T04:47:33.891Z,1.48
2023-02-11T04:50:01.864Z,1.23
2023-02-11T04:52:30.076Z,1.10
2023-02-11T04:54:57.936Z,1.23
2023-02-11T04:57:27.881Z,1.33
2023-02-11T04:59:56.190Z,0.98
2023-02-11T05:02:24.105Z,0.80
2023-02-11T05:04:52.034Z,1.48
2023-02-11T05:07:20.167Z,0.50
2023-02-11T05:09:48.852Z,0.95
2023-02-11T05:12:17.124Z,1.48
2023-02-11T05:14:47.350Z,0.82
2023-02-11T05:17:15.621Z,1.17
2023-02-11T05:19:44.345Z,1.25
2023-02-11T05:27:08.964Z,1.25
2023-02-11T05:29:37.292Z,1.10
2023-02-11T05:32:09.146Z,1.13
2023-02-11T05:34:37.840Z,0.98
2023-02-11T05:37:06.371Z,1.15
2023-02-11T05:39:34.606Z,1.02
2023-02-11T05:42:02.603Z,0.98
2023-02-11T05:44:32.579Z,0.88
2023-02-11T05:47:01.546Z,1.05
2023-02-11T05:49:30.803Z,0.98
2023-02-11T05:51:58.990Z,1.30
2023-02-11T05:54:27.060Z,1.10
2023-02-11T05:56:55.659Z,1.23
2023-02-11T05:59:24.034Z,0.93
2023-02-11T06:01:52.087Z,1.35
2023-02-11T06:04:20.213Z,1.65
2023-02-11T06:06:50.405Z,1.27
2023-02-11T06:09:21.683Z,1.10
2023-02-11T06:11:50.457Z,1.20
2023-02-11T06:16:47.921Z,1.20
2023-02-11T06:19:16.305Z,2.05
2023-02-11T06:21:44.759Z,1.30
2023-02-11T06:24:14.124Z,1.45
2023-02-11T06:26:42.388Z,1.38
2023-02-11T06:29:10.704Z,1.13
2023-02-11T06:31:40.090Z,1.08
2023-02-11T06:34:08.767Z,0.90
2023-02-11T06:36:39.677Z,0.77
2023-02-11T06:39:08.180Z,1.48
2023-02-11T06:41:37.818Z,1.60
2023-02-11T06:44:06.141Z,1.27
2023-02-11T06:46:34.425Z,1.77
2023-02-11T06:49:03.037Z,1.90
2023-02-11T06:51:31.082Z,1.40
2023-02-11T06:53:59.128Z,1.55
2023-02-11T06:56:27.587Z,1.90
2023-02-11T06:58:58.156Z,2.47
2023-02-11T07:01:27.963Z,1.73
2023-02-11T07:03:56.089Z,2.22
2023-02-11T07:06:28.104Z,1.45
2023-02-11T07:08:57.705Z,1.88
2023-02-11T07:11:29.333Z,2.63
2023-02-11T07:14:03.134Z,2.45
2023-02-11T07:16:32.173Z,2.30
2023-02-11T07:19:00.833Z,2.63
2023-02-11T07:21:29.592Z,2.72
2023-02-11T07:23:57.557Z,1.85
2023-02-11T07:26:29.969Z,1.52
2023-02-11T07:29:00.021Z,2.22
2023-02-11T07:31:30.862Z,2.55
2023-02-11T07:34:01.636Z,1.88
2023-02-11T07:36:31.884Z,1.90
2023-02-11T07:39:01.301Z,3.15
2023-02-11T07:41:29.320Z,1.88
2023-02-11T07:46:29.394Z,1.40
2023-02-11T07:48:58.367Z,1.77
2023-02-11T07:53:56.462Z,1.73
2023-02-11T07:56:25.057Z,3.05
2023-02-11T07:58:53.701Z,2.47
2023-02-11T08:01:25.929Z,2.05
2023-02-11T08:03:54.905Z,3.05
2023-02-11T08:06:25.189Z,2.22
2023-02-11T08:08:53.719Z,2.55
2023-02-11T08:13:52.110Z,1.77
2023-02-11T08:16:23.366Z,2.10
2023-02-11T08:18:53.271Z,2.60
2023-02-11T08:21:22.146Z,3.20
2023-02-11T08:23:51.056Z,1.63
2023-02-11T08:26:21.316Z,3.58
2023-02-11T08:28:52.221Z,2.47
2023-02-11T08:31:24.942Z,3.63
2023-02-11T08:33:57.964Z,2.78
2023-02-11T08:36:29.161Z,2.60
2023-02-11T08:39:12.402Z,2.67
2023-02-11T08:41:46.510Z,2.22
2023-02-11T08:44:15.867Z,2.05
2023-02-11T08:46:45.474Z,2.50
2023-02-11T08:49:13.452Z,2.78
2023-02-11T08:51:41.530Z,3.63
2023-02-11T08:54:10.441Z,2.55
2023-02-11T08:56:40.184Z,2.17
2023-02-11T08:59:09.419Z,3.00
2023-02-11T09:01:37.964Z,2.50
2023-02-11T09:06:36.428Z,2.58
2023-02-11T09:09:04.859Z,2.92
2023-02-11T09:11:35.640Z,1.58
2023-02-11T09:14:06.929Z,3.83
2023-02-11T09:16:39.119Z,3.25
2023-02-11T09:19:08.863Z,2.42
2023-02-11T09:21:37.295Z,2.97
2023-02-11T09:31:36.361Z,2.67
2023-02-11T09:34:06.487Z,2.33
2023-02-11T09:36:40.858Z,2.78
2023-02-11T09:39:12.983Z,3.20
2023-02-11T09:41:55.972Z,2.75
2023-02-11T09:44:26.812Z,2.50
2023-02-11T09:46:58.970Z,2.67
2023-02-11T09:49:35.892Z,3.33
2023-02-11T09:52:09.232Z,2.97
2023-02-11T09:54:45.371Z,3.50
2023-02-11T09:57:27.667Z,3.30
2023-02-11T09:59:57.752Z,2.88
2023-02-11T10:02:31.194Z,3.83
2023-02-11T10:05:31.319Z,2.38
2023-02-11T10:08:14.618Z,4.15
2023-02-11T10:10:53.333Z,2.90
2023-02-11T10:13:42.780Z,3.25
2023-02-11T10:16:26.460Z,3.45
2023-02-11T10:19:09.740Z,2.53
2023-02-11T10:21:46.606Z,3.33
2023-02-11T10:24:18.676Z,2.25
2023-02-11T10:26:47.903Z,2.67
2023-02-11T10:29:27.626Z,2.53
2023-02-11T10:31:58.496Z,3.15
2023-02-11T10:34:27.033Z,2.88
2023-02-11T10:36:55.266Z,3.58
2023-02-11T10:39:28.269Z,2.70
2023-02-11T10:42:00.445Z,2.70
2023-02-11T10:44:33.113Z,3.65
2023-02-11T10:47:05.391Z,1.95
2023-02-11T10:49:41.915Z,2.25
2023-02-11T10:52:20.602Z,2.90
2023-02-11T10:55:03.192Z,2.58
2023-02-11T10:57:36.065Z,2.90
2023-02-11T11:00:20.413Z,2.42
2023-02-11T11:02:55.615Z,2.17
2023-02-11T11:05:30.171Z,2.90
2023-02-11T11:08:01.074Z,2.58
2023-02-11T11:10:43.451Z,2.22
2023-02-11T11:13:27.032Z,2.42
2023-02-11T11:16:18.777Z,2.00
2023-02-11T11:18:48.984Z,3.15
2023-02-11T11:21:21.192Z,1.83
2023-02-11T11:23:57.663Z,2.05
2023-02-11T11:26:29.460Z,2.47
2023-02-11T11:29:02.189Z,3.40
2023-02-11T11:31:34.718Z,2.42
2023-02-11T11:34:16.828Z,3.05
2023-02-11T11:36:45.777Z,2.85
2023-02-11T11:39:23.063Z,2.53
2023-02-11T11:41:55.364Z,2.60
2023-02-11T11:44:33.036Z,2.00
2023-02-11T11:47:23.317Z,2.83
2023-02-11T11:50:21.237Z,2.50
2023-02-11T11:52:55.364Z,2.50
2023-02-11T11:55:30.060Z,2.92
2023-02-11T11:58:00.434Z,2.22
2023-02-11T12:00:36.052Z,2.70
2023-02-11T12:03:23.288Z,2.28
2023-02-11T12:06:09.123Z,2.75
2023-02-11T12:08:52.285Z,2.60
2023-02-11T12:11:30.853Z,2.25
2023-02-11T12:14:14.754Z,3.03
2023-02-11T12:16:51.779Z,3.05
2023-02-11T12:19:50.953Z,2.17
2023-02-11T12:22:30.999Z,2.42
2023-02-11T12:25:17.373Z,1.63
2023-02-11T12:27:51.937Z,2.17
2023-02-11T12:30:49.605Z,2.85
2023-02-11T12:33:32.567Z,3.08
2023-02-11T12:36:09.374Z,2.50
2023-02-11T12:38:50.823Z,2.67
2023-02-11T12:41:51.501Z,2.90
2023-02-11T12:44:26.839Z,2.25
2023-02-11T12:47:07.646Z,2.20
2023-02-11T12:49:51.382Z,2.70
2023-02-11T12:52:34.863Z,3.13
2023-02-11T12:55:09.657Z,2.25
2023-02-11T13:00:14.975Z,2.08
2023-02-11T13:02:48.468Z,2.10
2023-02-11T13:05:24.970Z,2.53
2023-02-11T13:07:56.802Z,2.17
2023-02-11T13:10:30.254Z,1.88
2023-02-11T13:13:19.916Z,2.33
2023-02-11T13:15:55.354Z,2.17
2023-02-11T13:18:52.121Z,2.75
2023-02-11T13:21:32.156Z,2.10
2023-02-11T13:24:09.220Z,2.33
2023-02-11T13:26:46.522Z,2.47
2023-02-11T13:29:26.599Z,2.10
2023-02-11T13:31:58.454Z,1.90
2023-02-11T13:35:09.121Z,1.65
2023-02-11T13:37:39.880Z,1.98
2023-02-11T13:40:22.609Z,2.22
2023-02-11T13:42:54.172Z,2.08
2023-02-11T13:45:31.272Z,1.65
2023-02-11T13:48:02.721Z,1.88
2023-02-11T13:50:37.845Z,1.92
2023-02-11T13:53:08.836Z,1.98
2023-02-11T13:55:38.380Z,2.28
2023-02-11T13:58:34.109Z,1.80
2023-02-11T14:01:02.323Z,1.95
2023-02-11T14:03:50.687Z,1.73
2023-02-11T14:06:47.379Z,2.08
2023-02-11T14:09:40.688Z,1.40
2023-02-11T14:12:24.701Z,1.58
2023-02-11T14:15:17.979Z,2.35
2023-02-11T14:17:46.486Z,1.85
2023-02-11T14:20:45.312Z,1.85
2023-02-11T14:23:31.153Z,1.73
2023-02-11T14:26:13.634Z,1.38
2023-02-11T14:28:46.841Z,1.60
2023-02-11T14:31:20.939Z,1.77
2023-02-11T14:34:00.578Z,2.10
2023-02-11T14:36:59.259Z,1.75
2023-02-11T14:39:52.822Z,1.40
2023-02-11T14:42:26.633Z,1.70
2023-02-11T14:44:59.578Z,0.95
2023-02-11T14:47:35.700Z,1.42
2023-02-11T14:50:04.479Z,2.25
2023-02-11T14:52:35.400Z,1.45
2023-02-11T14:55:29.163Z,2.60
2023-02-11T14:58:16.242Z,1.92
2023-02-11T15:00:54.409Z,1.90
2023-02-11T15:03:34.909Z,1.40
2023-02-11T15:06:06.845Z,1.52
2023-02-11T15:08:37.588Z,1.92
2023-02-11T15:11:11.697Z,1.73
2023-02-11T15:13:47.607Z,1.50
2023-02-11T15:16:19.405Z,1.60
2023-02-11T15:18:51.807Z,4.82
2023-02-11T15:21:24.630Z,3.45
2023-02-11T15:24:01.228Z,2.97
2023-02-11T15:26:31.259Z,4.47
2023-02-11T15:29:00.013Z,2.33
2023-02-11T15:31:30.729Z,2.58
2023-02-11T15:34:08.902Z,2.63
2023-02-11T15:36:38.900Z,2.53
2023-02-11T15:39:30.394Z,5.82
2023-02-11T15:42:22.909Z,2.65
2023-02-11T15:45:08.880Z,2.58
2023-02-11T15:47:37.893Z,2.40
2023-02-11T15:50:07.125Z,3.35
2023-02-11T15:52:35.642Z,2.53
2023-02-11T15:55:04.025Z,2.10
2023-02-11T16:00:09.657Z,2.15
2023-02-11T16:02:45.190Z,2.40
2023-02-11T16:05:28.069Z,2.28
2023-02-11T16:07:58.009Z,2.40
2023-02-11T16:10:30.173Z,2.15
2023-02-11T16:13:20.426Z,2.17
2023-02-11T16:15:53.042Z,2.00
2023-02-11T16:18:38.831Z,1.95
2023-02-11T16:21:14.594Z,2.33
2023-02-11T16:23:43.241Z,2.17
2023-02-11T16:26:24.160Z,2.58
2023-02-11T16:28:54.001Z,2.05
2023-02-11T16:31:22.478Z,16.08
2023-02-11T16:33:51.062Z,9.20
2023-02-11T16:36:19.288Z,10.90
2023-02-11T16:38:47.914Z,4.80
2023-02-11T16:43:44.405Z,3.80
2023-02-11T16:46:16.434Z,3.40
2023-02-11T16:48:45.060Z,2.88
2023-02-11T16:51:13.525Z,3.15
2023-02-11T16:53:41.902Z,2.88
2023-02-11T16:56:16.811Z,3.38
2023-02-11T16:58:45.783Z,2.75
2023-02-11T17:01:15.409Z,2.67
2023-02-11T17:03:44.058Z,2.35
2023-02-11T17:06:14.089Z,2.58
2023-02-11T17:08:42.541Z,2.65
2023-02-11T17:11:11.202Z,2.78
2023-02-11T17:13:41.704Z,2.00
2023-02-11T17:16:19.897Z,2.63
2023-02-11T17:18:48.396Z,2.90
2023-02-11T17:23:45.964Z,2.08
2023-02-11T17:26:13.959Z,1.95
2023-02-11T17:28:42.434Z,1.95
2023-02-11T17:31:11.143Z,2.53
2023-02-11T17:33:41.383Z,3.72
2023-02-11T17:36:10.933Z,3.92
2023-02-11T17:38:39.200Z,5.50
2023-02-11T17:41:07.874Z,3.90
2023-02-11T17:43:35.950Z,3.97
2023-02-11T17:46:08.413Z,3.10
2023-02-11T17:48:38.254Z,5.03
2023-02-11T17:51:23.374Z,3.63
2023-02-11T17:53:51.370Z,3.28
2023-02-11T17:56:19.736Z,3.33
2023-02-11T18:01:16.255Z,3.10
2023-02-11T18:06:14.048Z,3.30
2023-02-11T18:08:43.090Z,3.53
2023-02-11T18:11:11.897Z,3.85
2023-02-11T18:13:40.151Z,3.20
2023-02-11T18:16:09.453Z,3.00
2023-02-11T18:18:42.622Z,2.63
2023-02-11T18:21:15.606Z,2.95
2023-02-11T18:23:44.261Z,3.13
2023-02-11T18:26:13.915Z,2.47
2023-02-11T18:28:45.602Z,3.33
2023-02-11T18:31:15.267Z,2.35
2023-02-11T18:33:44.089Z,3.05
2023-02-11T18:36:15.704Z,3.08
2023-02-11T18:38:45.140Z,3.33
2023-02-11T18:41:14.374Z,3.00
2023-02-11T18:43:43.261Z,2.95
2023-02-11T18:46:13.328Z,2.63
2023-02-11T18:48:42.111Z,3.05
2023-02-11T18:51:11.939Z,3.38
2023-02-11T18:53:41.853Z,2.83
2023-02-11T18:56:12.472Z,6.75
2023-02-11T18:58:41.497Z,6.45
2023-02-11T19:01:15.487Z,6.97
2023-02-11T19:03:43.962Z,3.47
2023-02-11T19:06:16.359Z,4.10
2023-02-11T19:08:45.850Z,3.90
2023-02-11T19:11:16.124Z,2.67
2023-02-11T19:13:44.533Z,2.88
2023-02-11T19:16:14.859Z,3.15
2023-02-11T19:18:43.944Z,2.72
2023-02-11T19:21:13.303Z,3.90
2023-02-11T19:23:41.804Z,4.30
2023-02-11T19:26:11.188Z,3.08
2023-02-11T19:28:39.475Z,2.85
2023-02-11T19:31:08.946Z,3.45
2023-02-11T19:33:37.517Z,3.08
2023-02-11T19:38:34.729Z,2.17
2023-02-11T19:41:03.554Z,3.20
2023-02-11T19:43:33.452Z,3.63
2023-02-11T19:46:03.179Z,2.42
2023-02-11T19:48:31.713Z,3.03
2023-02-11T19:50:59.921Z,3.78
2023-02-11T19:53:28.192Z,3.45
2023-02-11T19:55:56.844Z,3.95
2023-02-11T19:58:25.237Z,3.75
2023-02-11T20:00:55.415Z,3.63
2023-02-11T20:03:23.808Z,3.38
2023-02-11T20:05:52.155Z,3.47
2023-02-11T20:08:20.318Z,3.42
2023-02-11T20:10:48.934Z,3.20
2023-02-11T20:13:17.070Z,3.78
2023-02-11T20:15:45.428Z,4.22
2023-02-11T20:18:14.995Z,4.15
2023-02-11T20:20:43.683Z,3.97
2023-02-11T20:23:11.701Z,3.95
2023-02-11T20:25:40.749Z,4.28
2023-02-11T20:28:08.851Z,2.95
2023-02-11T20:30:37.219Z,2.67
2023-02-11T20:35:35.518Z,3.10
2023-02-11T20:38:04.056Z,3.13
2023-02-11T20:40:32.185Z,3.60
2023-02-11T20:43:00.435Z,2.67
2023-02-11T20:45:29.067Z,3.45
2023-02-11T20:47:57.124Z,3.63
2023-02-11T20:50:26.125Z,3.75
2023-02-11T20:52:55.565Z,3.67
2023-02-11T20:55:24.189Z,3.47
2023-02-11T20:57:52.429Z,2.75
2023-02-11T21:00:21.505Z,3.35
2023-02-11T21:02:53.247Z,3.45
2023-02-11T21:05:21.360Z,3.15
2023-02-11T21:07:49.310Z,3.22
2023-02-11T21:10:19.444Z,3.50
2023-02-11T21:12:49.789Z,3.47
2023-02-11T21:15:18.309Z,3.50
2023-02-11T21:17:46.681Z,3.28
2023-02-11T21:20:17.710Z,2.75
2023-02-11T21:22:46.278Z,3.28
2023-02-11T21:25:14.295Z,3.03
2023-02-11T21:27:43.580Z,3.00
2023-02-11T21:30:13.345Z,3.53
2023-02-11T21:32:41.997Z,2.65
2023-02-11T21:35:10.560Z,3.08
2023-02-11T21:37:38.618Z,3.10
2023-02-11T21:40:08.340Z,3.08
2023-02-11T21:42:36.924Z,3.28
2023-02-11T21:47:35.223Z,3.28
2023-02-11T21:50:03.293Z,3.45
2023-02-11T21:52:31.434Z,3.50
2023-02-11T21:54:59.471Z,3.78
2023-02-11T21:57:27.999Z,3.65
2023-02-11T21:59:56.011Z,3.83
2023-02-11T22:02:25.637Z,3.75
2023-02-11T22:04:54.018Z,3.63
2023-02-11T22:07:22.948Z,3.45
2023-02-11T22:09:54.670Z,3.90
2023-02-11T22:12:23.681Z,3.30
2023-02-11T22:14:51.838Z,4.03
2023-02-11T22:17:23.257Z,3.33
2023-02-11T22:19:53.360Z,4.22
2023-02-11T22:22:21.303Z,3.72
2023-02-11T22:24:49.359Z,4.05
2023-02-11T22:27:20.234Z,4.35
2023-02-11T22:29:49.151Z,3.60
2023-02-11T22:32:17.783Z,2.58
2023-02-11T22:34:46.313Z,3.72
2023-02-11T22:37:15.766Z,3.85
2023-02-11T22:39:44.439Z,4.07
2023-02-11T22:42:12.532Z,3.30
2023-02-11T22:44:41.189Z,4.20
2023-02-11T22:47:09.261Z,4.15
2023-02-11T22:49:39.594Z,3.55
2023-02-11T22:52:07.542Z,3.20
2023-02-11T22:54:37.184Z,4.28
2023-02-11T22:57:05.752Z,4.03
2023-02-11T22:59:33.996Z,3.90
2023-02-11T23:02:02.117Z,3.65
2023-02-11T23:04:30.862Z,3.25
2023-02-11T23:06:59.515Z,3.03
2023-02-11T23:09:28.009Z,3.58
2023-02-11T23:11:57.882Z,2.92
2023-02-11T23:14:26.641Z,2.88
2023-02-11T23:19:23.252Z,2.75
2023-02-11T23:21:52.620Z,3.45
2023-02-11T23:24:20.691Z,3.58
2023-02-11T23:26:49.234Z,3.85
2023-02-11T23:29:19.129Z,4.40
2023-02-11T23:31:48.225Z,3.78
2023-02-11T23:34:20.376Z,4.60
2023-02-11T23:36:50.262Z,4.75
2023-02-11T23:39:18.512Z,4.57
2023-02-11T23:41:47.233Z,5.13
2023-02-11T23:44:15.512Z,3.60
2023-02-11T23:46:45.371Z,4.18
2023-02-11T23:49:16.190Z,3.22
2023-02-11T23:51:44.216Z,4.00
2023-02-11T23:54:13.691Z,4.65
2023-02-11T23:56:42.829Z,3.58
2023-02-11T23:59:11.616Z,3.80
